Time;durP1;ratioP1;P1;durP2;ratioP2;P2;SDS_P1;SDS_P2;PMS_P1;PMS_P2;Temp;Humidity;BMP_temperature;BMP_pressure;BME280_temperature;BME280_humidity;BME280_pressure;Samples;Min_cycle;Max_cycle;Signal;HPM_P1;HPM_P2
2021/05/17 00:00:55;;;;;;;7.67;2.83;;;;;;;18.41;54.71;98750.79;1673601;84;21386;-71
2021/05/17 00:03:21;;;;;;;6.40;2.42;;;;;;;18.42;54.74;98746.12;1655710;85;21025;-70
2021/05/17 00:05:49;;;;;;;4.92;2.70;;;;;;;18.43;54.67;98744.44;1656978;85;21160;-73
2021/05/17 00:08:16;;;;;;;4.08;2.65;;;;;;;18.45;54.65;98750.37;1660393;85;21061;-71
2021/05/17 00:10:49;;;;;;;3.22;2.20;;;;;;;18.47;54.69;98744.02;1668550;85;20990;-73
2021/05/17 00:13:16;;;;;;;5.90;2.55;;;;;;;18.49;54.90;98745.88;1647064;86;21085;-68
2021/05/17 00:15:43;;;;;;;3.17;2.75;;;;;;;18.50;54.86;98742.59;1673406;85;20985;-71
2021/05/17 00:18:11;;;;;;;2.67;2.47;;;;;;;18.51;54.86;98735.44;1673419;85;20989;-70
2021/05/17 00:20:39;;;;;;;2.22;2.05;;;;;;;18.53;54.91;98729.16;1660242;85;20974;-71
2021/05/17 00:23:06;;;;;;;5.00;2.70;;;;;;;18.53;54.86;98726.42;1669756;85;21106;-69
2021/05/17 00:25:34;;;;;;;3.45;2.27;;;;;;;18.53;54.82;98720.98;1677159;85;21578;-68
2021/05/17 00:28:00;;;;;;;3.40;2.83;;;;;;;18.53;54.79;98713.34;1666182;84;21092;-68
2021/05/17 00:30:31;;;;;;;2.22;2.02;;;;;;;18.52;54.86;98717.98;1696056;83;21630;-67
2021/05/17 00:32:59;;;;;;;2.50;2.30;;;;;;;18.49;54.87;98716.48;1707834;83;21021;-68
2021/05/17 00:35:27;;;;;;;3.10;2.33;;;;;;;18.49;54.94;98715.92;1707257;83;21029;-71
2021/05/17 00:37:54;;;;;;;2.62;2.37;;;;;;;18.49;55.15;98711.03;1698630;83;21050;-72
2021/05/17 00:40:22;;;;;;;3.90;2.98;;;;;;;18.46;55.31;98710.34;1704362;83;21695;-70
2021/05/17 00:42:50;;;;;;;2.83;2.62;;;;;;;18.43;55.40;98704.16;1709171;83;21617;-68
2021/05/17 00:45:18;;;;;;;2.83;2.50;;;;;;;18.41;55.50;98696.89;1706717;83;21553;-69
2021/05/17 00:47:47;;;;;;;10.00;2.67;;;;;;;18.39;55.62;98694.48;1713040;83;20978;-68
2021/05/17 00:50:18;;;;;;;2.87;2.52;;;;;;;18.39;55.62;98685.52;1706325;83;21054;-70
2021/05/17 00:52:45;;;;;;;5.60;2.30;;;;;;;18.36;55.54;98684.27;1695405;83;21105;-69
2021/05/17 00:55:14;;;;;;;5.72;3.15;;;;;;;18.33;55.77;98674.56;1708520;83;21049;-68
2021/05/17 00:57:43;;;;;;;2.87;2.52;;;;;;;18.28;55.83;98676.34;1706377;83;20974;-68
2021/05/17 01:00:18;;;;;;;3.45;2.60;;;;;;;18.25;56.06;98683.80;1702931;83;21547;-68
2021/05/17 01:02:47;;;;;;;3.02;2.83;;;;;;;18.23;56.01;98679.80;1696022;83;21001;-69
2021/05/17 01:05:15;;;;;;;2.72;2.50;;;;;;;18.22;56.02;98683.08;1668162;83;21033;-67
2021/05/17 01:07:46;;;;;;;6.92;2.65;;;;;;;18.23;56.06;98679.80;1706900;83;21004;-67
2021/05/17 01:10:11;;;;;;;3.25;2.62;;;;;;;18.25;56.04;98687.09;1709789;83;20994;-68
2021/05/17 01:12:37;;;;;;;3.87;2.42;;;;;;;18.26;55.96;98691.41;1703649;83;20966;-68
2021/05/17 01:15:07;;;;;;;4.35;2.83;;;;;;;18.29;55.90;98701.64;1700186;83;21661;-67
2021/05/17 01:17:35;;;;;;;3.10;2.90;;;;;;;18.32;55.85;98698.85;1709636;83;21604;-68
2021/05/17 01:20:11;;;;;;;3.02;2.75;;;;;;;18.35;55.94;98700.35;1692121;83;21058;-70
2021/05/17 01:25:21;;;;;;;2.15;2.05;;;;;;;18.37;56.10;98701.40;1709437;83;21090;-68
2021/05/17 01:27:48;;;;;;;8.80;3.10;;;;;;;18.37;56.11;98697.31;1697394;83;21089;-67
2021/05/17 01:30:16;;;;;;;3.60;2.67;;;;;;;18.34;56.13;98706.91;1692584;83;21393;-69
2021/05/17 01:32:44;;;;;;;2.45;2.00;;;;;;;18.34;56.19;98697.94;1703067;84;20979;-68
2021/05/17 01:35:12;;;;;;;3.90;2.02;;;;;;;18.36;56.25;98699.80;1696442;84;21033;-67
2021/05/17 01:37:40;;;;;;;2.85;2.47;;;;;;;18.34;56.37;98692.50;1687522;83;21194;-68
2021/05/17 01:40:09;;;;;;;2.65;2.45;;;;;;;18.26;56.60;98687.33;1683632;83;21311;-68
2021/05/17 01:42:41;;;;;;;4.45;2.50;;;;;;;18.23;56.74;98681.95;1684892;84;21228;-69
2021/05/17 01:45:09;;;;;;;4.40;2.60;;;;;;;18.19;56.73;98670.13;1693578;84;21639;-68
2021/05/17 01:47:40;;;;;;;3.40;3.10;;;;;;;18.19;56.85;98670.13;1685588;84;21074;-68
2021/05/17 01:50:14;;;;;;;6.80;3.10;;;;;;;18.19;56.92;98667.96;1662033;84;21006;-68
2021/05/17 01:52:41;;;;;;;4.65;3.17;;;;;;;18.19;57.00;98675.57;1689025;84;21163;-66
2021/05/17 01:55:10;;;;;;;4.25;2.92;;;;;;;18.14;57.30;98683.91;1681937;84;21511;-67
2021/05/17 01:57:37;;;;;;;6.08;3.30;;;;;;;18.12;57.51;98680.73;1687315;84;21014;-68
2021/05/17 02:00:08;;;;;;;20.25;16.80;;;;;;;18.11;57.76;98682.41;1706717;84;20967;-71
2021/05/17 02:02:37;;;;;;;4.87;3.67;;;;;;;18.11;57.85;98668.23;1701035;84;21562;-69
2021/05/17 02:05:07;;;;;;;3.98;3.12;;;;;;;18.11;57.86;98658.71;1694830;83;21090;-74
2021/05/17 02:07:36;;;;;;;4.30;3.08;;;;;;;18.12;57.69;98654.88;1682329;84;21849;-68
2021/05/17 02:10:05;;;;;;;5.25;2.98;;;;;;;18.15;57.63;98652.85;1682862;84;20994;-67
2021/05/17 02:12:33;;;;;;;4.80;2.95;;;;;;;18.20;57.60;98654.59;1680712;84;21585;-73
2021/05/17 02:15:03;;;;;;;4.72;3.22;;;;;;;18.23;57.57;98659.38;1702122;84;21111;-70
2021/05/17 02:17:33;;;;;;;3.22;3.00;;;;;;;18.24;57.60;98654.98;1674310;84;21102;-70
2021/05/17 02:19:59;;;;;;;3.02;2.60;;;;;;;18.25;57.58;98659.31;1690051;83;20955;-70
2021/05/17 02:22:26;;;;;;;5.22;3.12;;;;;;;18.25;57.68;98679.73;1705523;83;21674;-69
2021/05/17 02:24:58;;;;;;;7.67;3.45;;;;;;;18.24;58.00;98686.28;1685869;84;21072;-69
2021/05/17 02:27:26;;;;;;;3.98;2.75;;;;;;;18.21;58.22;98686.95;1683450;83;21016;-68
2021/05/17 02:29:55;;;;;;;6.17;3.37;;;;;;;18.17;58.27;98691.44;1659095;84;20962;-71
2021/05/17 02:32:23;;;;;;;5.83;3.50;;;;;;;18.10;58.65;98692.48;1688079;84;21009;-68
2021/05/17 02:34:51;;;;;;;4.83;3.42;;;;;;;18.06;59.22;98707.86;1647690;86;21069;-69
2021/05/17 02:37:19;;;;;;;3.62;3.33;;;;;;;18.02;59.62;98715.08;1641630;86;20954;-69
2021/05/17 02:39:48;;;;;;;3.50;3.20;;;;;;;18.02;59.37;98724.59;1650727;85;21064;-68
2021/05/17 02:42:17;;;;;;;5.70;3.52;;;;;;;17.99;60.42;98728.50;1609864;86;21562;-70
2021/05/17 02:44:44;;;;;;;5.70;3.95;;;;;;;17.96;61.24;98733.23;1649117;85;21414;-68
2021/05/17 02:47:12;;;;;;;6.55;3.50;;;;;;;17.85;62.33;98747.16;1657539;86;21001;-68
2021/05/17 02:49:39;;;;;;;7.80;3.37;;;;;;;17.76;62.48;98742.84;1640790;86;21126;-68
2021/05/17 02:52:07;;;;;;;7.15;4.03;;;;;;;17.72;62.92;98735.89;1660758;85;21005;-69
2021/05/17 02:54:39;;;;;;;5.70;5.12;;;;;;;17.64;63.45;98729.90;1628240;86;22012;-68
2021/05/17 02:57:09;;;;;;;6.30;5.17;;;;;;;17.58;64.00;98726.25;1653464;85;21077;-71
2021/05/17 03:00:04;;;;;;;4.53;4.12;;;;;;;17.54;64.52;98718.50;1686554;85;21052;-68
2021/05/17 03:02:32;;;;;;;8.40;4.20;;;;;;;17.52;64.96;98710.66;1653171;86;21573;-69
2021/05/17 03:05:00;;;;;;;6.53;4.12;;;;;;;17.48;64.72;98711.05;1636195;86;21097;-68
2021/05/17 03:07:34;;;;;;;5.90;3.65;;;;;;;17.43;65.35;98711.20;1657504;86;21023;-74
2021/05/17 03:10:02;;;;;;;6.03;4.55;;;;;;;17.38;65.45;98705.92;1650774;86;21102;-73
2021/05/17 03:12:31;;;;;;;8.70;5.87;;;;;;;17.26;69.22;98719.35;1651179;85;20950;-68
2021/05/17 03:14:58;;;;;;;5.22;4.42;;;;;;;17.04;71.45;98729.75;1646649;86;21074;-68
2021/05/17 03:17:26;;;;;;;8.80;3.98;;;;;;;16.84;72.74;98724.89;1668414;85;21005;-69
2021/05/17 03:19:54;;;;;;;9.75;6.62;;;;;;;16.74;74.91;98717.83;1683031;85;21073;-71
2021/05/17 03:22:23;;;;;;;8.58;5.75;;;;;;;16.60;76.17;98705.47;1666039;85;21175;-71
2021/05/17 03:24:51;;;;;;;7.67;4.70;;;;;;;16.43;77.81;98679.84;1685328;84;21041;-69
2021/05/17 03:27:26;;;;;;;4.00;3.60;;;;;;;16.28;78.20;98672.09;1615357;87;21042;-69
2021/05/17 03:29:53;;;;;;;10.05;5.47;;;;;;;16.15;78.33;98654.01;1629777;87;21577;-70
2021/05/17 03:32:20;;;;;;;9.03;4.87;;;;;;;16.02;79.13;98646.19;1621336;86;21046;-69
2021/05/17 03:34:46;;;;;;;6.85;4.42;;;;;;;16.01;80.05;98643.80;1636919;86;22485;-67
2021/05/17 03:37:14;;;;;;;6.65;5.00;;;;;;;15.99;80.56;98633.80;1618909;87;21046;-68
2021/05/17 03:39:46;;;;;;;7.55;5.45;;;;;;;15.91;81.42;98611.52;1639138;87;21077;-70
2021/05/17 03:42:12;;;;;;;5.78;4.45;;;;;;;15.82;82.12;98601.19;1621197;86;21217;-70
2021/05/17 03:44:40;;;;;;;6.37;4.10;;;;;;;15.75;82.76;98591.31;1627031;86;21082;-69
2021/05/17 03:47:07;;;;;;;6.62;4.62;;;;;;;15.50;84.37;98578.63;1603132;87;21114;-71
2021/05/17 03:49:34;;;;;;;6.70;4.85;;;;;;;15.43;84.46;98578.27;1604567;86;21597;-71
2021/05/17 03:52:00;;;;;;;6.78;5.55;;;;;;;15.31;85.52;98582.63;1639089;87;21026;-70
2021/05/17 03:54:27;;;;;;;5.33;4.83;;;;;;;15.28;85.42;98579.44;1628246;86;21557;-71
2021/05/17 03:56:54;;;;;;;6.75;3.75;;;;;;;15.25;85.79;98570.55;1616402;86;21042;-71
2021/05/17 03:59:20;;;;;;;5.03;4.45;;;;;;;15.30;86.29;98559.38;1643405;86;21216;-72
2021/05/17 04:01:47;;;;;;;5.47;3.87;;;;;;;15.32;85.91;98556.59;1624729;86;21702;-73
2021/05/17 04:04:15;;;;;;;5.75;4.25;;;;;;;15.33;85.94;98547.36;1678427;84;21020;-70
2021/05/17 04:06:53;;;;;;;9.48;4.58;;;;;;;15.31;86.54;98533.86;1699517;84;21061;-71
2021/05/17 04:14:45;;;;;;;5.37;4.70;;;;;;;15.40;86.81;98511.69;1691023;83;21100;-69
2021/05/17 04:17:12;;;;;;;4.15;3.75;;;;;;;15.37;86.29;98508.25;1659687;85;21571;-70
2021/05/17 04:19:39;;;;;;;6.33;4.37;;;;;;;15.36;86.41;98508.00;1676620;84;21204;-70
2021/05/17 04:22:06;;;;;;;3.92;3.60;;;;;;;15.35;86.59;98498.30;1672735;85;21017;-72
2021/05/17 04:24:33;;;;;;;11.90;4.95;;;;;;;15.34;86.66;98504.27;1670636;84;21236;-70
2021/05/17 04:27:00;;;;;;;6.35;4.45;;;;;;;15.34;86.75;98508.33;1672794;85;21000;-72
2021/05/17 04:29:27;;;;;;;6.20;4.78;;;;;;;15.35;86.58;98520.74;1638168;85;21093;-70
2021/05/17 04:31:55;;;;;;;11.03;4.58;;;;;;;15.34;86.75;98520.52;1685546;85;21076;-72
2021/05/17 04:34:22;;;;;;;10.80;4.37;;;;;;;15.31;86.86;98539.28;1684150;84;21105;-72
2021/05/17 04:36:50;;;;;;;4.83;4.20;;;;;;;15.30;86.85;98540.41;1631119;86;21778;-69
2021/05/17 04:39:17;;;;;;;5.83;4.92;;;;;;;15.32;86.95;98543.59;1652701;85;21056;-77
2021/05/17 04:41:43;;;;;;;5.22;4.62;;;;;;;15.34;87.18;98553.58;1633637;86;21029;-70
2021/05/17 04:44:11;;;;;;;6.78;4.53;;;;;;;15.36;87.20;98553.51;1680638;85;21037;-71
2021/05/17 04:46:37;;;;;;;3.87;3.52;;;;;;;15.37;87.19;98549.69;1626293;86;21149;-69
2021/05/17 04:49:04;;;;;;;6.50;4.85;;;;;;;15.36;87.19;98556.22;1678438;85;21620;-70
2021/05/17 04:51:31;;;;;;;5.28;4.75;;;;;;;15.35;87.13;98553.25;1630571;86;21550;-70
2021/05/17 04:53:57;;;;;;;5.12;4.62;;;;;;;15.38;87.47;98547.78;1673864;84;21608;-69
2021/05/17 04:56:24;;;;;;;4.40;4.00;;;;;;;15.40;87.71;98540.94;1683875;85;21060;-70
2021/05/17 04:58:51;;;;;;;8.03;5.22;;;;;;;15.46;87.94;98542.41;1615646;87;21162;-71
2021/05/17 05:01:17;;;;;;;4.95;4.45;;;;;;;15.50;87.71;98546.66;1643419;86;21084;-70
2021/05/17 05:03:44;;;;;;;4.25;3.85;;;;;;;15.48;87.60;98540.21;1644105;86;21745;-70
2021/05/17 05:06:10;;;;;;;5.35;4.40;;;;;;;15.51;87.62;98549.65;1643919;85;20993;-70
2021/05/17 05:08:37;;;;;;;6.25;4.25;;;;;;;15.52;87.33;98551.25;1633179;86;21140;-69
2021/05/17 05:11:04;;;;;;;4.70;4.30;;;;;;;15.54;87.16;98538.98;1660596;86;21698;-70
2021/05/17 05:13:31;;;;;;;7.72;4.62;;;;;;;15.56;87.20;98534.06;1632060;86;21046;-70
2021/05/17 05:15:58;;;;;;;4.72;4.33;;;;;;;15.56;86.93;98540.84;1688069;85;21617;-70
2021/05/17 05:18:24;;;;;;;5.10;4.53;;;;;;;15.56;86.96;98539.48;1656900;86;21054;-74
2021/05/17 05:20:53;;;;;;;4.72;4.33;;;;;;;15.57;86.97;98532.95;1688252;85;20970;-70
2021/05/17 05:23:21;;;;;;;4.97;4.58;;;;;;;15.58;87.04;98528.34;1644785;86;21006;-69
2021/05/17 05:28:34;;;;;;;5.10;4.60;;;;;;;15.55;87.21;98511.33;1614477;88;21041;-71
2021/05/17 05:30:59;;;;;;;5.30;4.55;;;;;;;15.51;87.39;98504.94;1641849;87;21071;-69
2021/05/17 05:33:22;;;;;;;3.83;3.42;;;;;;;15.45;88.09;98483.91;1605590;87;21112;-69
2021/05/17 05:35:50;;;;;;;7.10;4.62;;;;;;;15.42;88.46;98483.19;1610990;88;21629;-69
2021/05/17 05:38:17;;;;;;;6.75;6.03;;;;;;;15.42;88.75;98474.25;1610027;88;21610;-69
2021/05/17 05:40:43;;;;;;;6.05;4.00;;;;;;;15.38;88.62;98466.52;1628419;86;21004;-69
2021/05/17 05:43:10;;;;;;;4.12;3.83;;;;;;;15.36;88.87;98467.36;1690747;84;21561;-70
2021/05/17 05:45:44;;;;;;;5.80;4.10;;;;;;;15.34;88.89;98463.63;1673654;85;20913;-71
2021/05/17 05:48:07;;;;;;;6.12;4.12;;;;;;;15.39;89.05;98457.28;1672713;85;21009;-71
2021/05/17 05:50:33;;;;;;;4.17;3.77;;;;;;;15.46;88.86;98452.20;1673721;85;21072;-71
2021/05/17 05:53:00;;;;;;;5.30;4.47;;;;;;;15.53;88.75;98460.72;1676886;84;21601;-69
2021/05/17 05:55:26;;;;;;;3.70;3.40;;;;;;;15.58;88.57;98444.33;1701732;83;20997;-74
2021/05/17 05:57:53;;;;;;;4.50;4.10;;;;;;;15.65;88.70;98446.81;1691661;84;21074;-70
2021/05/17 06:00:22;;;;;;;6.53;4.60;;;;;;;15.74;88.50;98446.04;1687811;84;21130;-69
2021/05/17 06:02:48;;;;;;;7.90;4.33;;;;;;;15.84;88.02;98440.34;1702516;84;21100;-69
2021/05/17 06:05:16;;;;;;;5.05;4.55;;;;;;;15.90;87.56;98436.38;1702375;83;21046;-69
2021/05/17 06:07:42;;;;;;;4.37;3.92;;;;;;;15.93;87.20;98420.81;1702087;84;21577;-74
2021/05/17 06:10:10;;;;;;;5.35;4.03;;;;;;;15.96;87.10;98416.14;1674606;83;21036;-72
2021/05/17 06:12:42;;;;;;;6.03;4.15;;;;;;;16.01;87.02;98418.70;1674659;85;21004;-69
2021/05/17 06:15:11;;;;;;;3.90;3.50;;;;;;;16.06;87.22;98407.70;1628617;85;21044;-70
2021/05/17 06:17:38;;;;;;;5.50;3.87;;;;;;;16.10;87.08;98409.47;1689497;84;20992;-71
2021/05/17 06:20:07;;;;;;;5.70;4.65;;;;;;;16.13;87.08;98414.25;1700919;84;20918;-68
2021/05/17 06:22:37;;;;;;;6.67;4.65;;;;;;;16.18;87.25;98409.22;1683980;84;20985;-71
2021/05/17 06:25:09;;;;;;;5.47;3.92;;;;;;;16.23;87.31;98404.20;1674051;84;21600;-69
2021/05/17 06:27:38;;;;;;;3.90;3.47;;;;;;;16.31;87.18;98408.27;1684955;84;21061;-70
2021/05/17 06:30:08;;;;;;;4.17;3.87;;;;;;;16.38;86.88;98392.87;1684038;83;20993;-69
2021/05/17 06:32:36;;;;;;;4.28;3.87;;;;;;;16.43;86.79;98371.81;1662289;85;21073;-68
2021/05/17 06:35:06;;;;;;;5.28;3.55;;;;;;;16.47;86.86;98363.27;1630800;88;21002;-70
2021/05/17 06:37:32;;;;;;;4.47;4.08;;;;;;;16.50;86.75;98336.83;1642363;87;21030;-71
2021/05/17 06:39:59;;;;;;;3.75;3.45;;;;;;;16.55;87.00;98342.09;1670823;85;21132;-70
2021/05/17 06:42:25;;;;;;;4.25;3.80;;;;;;;16.57;87.08;98334.44;1645449;85;20997;-70
2021/05/17 06:44:54;;;;;;;15.30;6.00;;;;;;;16.59;87.19;98334.72;1630701;88;21024;-69
2021/05/17 06:47:21;;;;;;;3.67;3.10;;;;;;;16.57;87.10;98338.52;1661597;86;21041;-68
2021/05/17 06:49:49;;;;;;;3.72;3.42;;;;;;;16.56;87.31;98356.47;1631161;86;21265;-71
2021/05/17 06:52:17;;;;;;;3.58;3.27;;;;;;;16.58;87.51;98380.06;1655911;85;21069;-69
2021/05/17 06:54:45;;;;;;;4.70;4.25;;;;;;;16.64;87.57;98435.79;1664620;85;21115;-73
2021/05/17 06:57:28;;;;;;;4.58;4.22;;;;;;;16.72;87.28;98469.47;1689299;85;20994;-70
2021/05/17 06:59:55;;;;;;;9.95;4.60;;;;;;;16.81;86.85;98473.78;1659812;86;21028;-69
2021/05/17 07:02:20;;;;;;;7.22;4.25;;;;;;;16.89;86.22;98464.02;1669800;85;21064;-70
2021/05/17 07:04:46;;;;;;;4.90;4.50;;;;;;;16.98;85.98;98462.09;1688203;84;21033;-69
2021/05/17 07:07:24;;;;;;;9.20;4.35;;;;;;;17.07;85.58;98468.90;1631958;86;21026;-70
2021/05/17 07:12:32;;;;;;;3.98;3.67;;;;;;;17.29;84.67;98454.54;1632679;86;21574;-70
2021/05/17 07:15:01;;;;;;;3.35;3.05;;;;;;;17.34;83.81;98446.21;1635410;86;21056;-69
2021/05/17 07:17:27;;;;;;;4.62;4.03;;;;;;;17.37;83.43;98448.83;1641849;87;21118;-71
2021/05/17 07:19:53;;;;;;;5.30;3.27;;;;;;;17.36;83.36;98435.80;1664415;85;21068;-70
2021/05/17 07:25:08;;;;;;;3.40;2.95;;;;;;;17.36;82.55;98441.82;1688265;85;21182;-69
2021/05/17 07:27:34;;;;;;;3.83;3.30;;;;;;;17.32;82.25;98441.65;1630255;86;21030;-70
2021/05/17 07:30:02;;;;;;;3.85;3.08;;;;;;;17.34;82.45;98439.42;1650447;85;22697;-70
2021/05/17 07:32:29;;;;;;;2.80;2.60;;;;;;;17.39;82.41;98430.29;1610237;87;21628;-69
2021/05/17 07:34:56;;;;;;;3.55;3.20;;;;;;;17.45;82.22;98423.56;1640377;85;21103;-69
2021/05/17 07:37:22;;;;;;;3.35;3.05;;;;;;;17.51;81.46;98430.95;1647542;85;21538;-68
2021/05/17 07:39:48;;;;;;;5.80;5.05;;;;;;;17.53;81.04;98422.72;1632887;87;21114;-71
2021/05/17 07:42:16;;;;;;;7.40;3.25;;;;;;;17.55;80.59;98412.33;1645341;87;21089;-69
2021/05/17 07:44:43;;;;;;;3.67;2.90;;;;;;;17.59;80.22;98403.78;1624712;87;21011;-69
2021/05/17 07:47:09;;;;;;;3.35;3.12;;;;;;;17.64;80.29;98379.69;1667602;85;21602;-69
2021/05/17 07:49:41;;;;;;;3.25;2.95;;;;;;;17.72;80.35;98378.27;1656174;85;21034;-69
2021/05/17 07:52:07;;;;;;;4.28;2.90;;;;;;;17.81;79.83;98400.78;1617726;88;21575;-70
2021/05/17 07:54:36;;;;;;;3.90;2.95;;;;;;;17.90;78.87;98423.05;1645293;87;21007;-69
2021/05/17 07:57:05;;;;;;;3.40;2.90;;;;;;;17.98;78.15;98439.90;1630235;86;21035;-69
2021/05/17 07:59:32;;;;;;;2.95;2.60;;;;;;;18.05;78.21;98461.37;1651351;85;21026;-68
2021/05/17 08:02:00;;;;;;;3.52;3.22;;;;;;;18.10;77.43;98453.02;1672953;85;21007;-68
2021/05/17 08:04:26;;;;;;;4.83;2.87;;;;;;;18.13;77.29;98458.38;1663556;85;21058;-70
2021/05/17 08:06:53;;;;;;;4.00;3.30;;;;;;;18.17;77.36;98469.64;1664361;85;20990;-69
2021/05/17 08:09:21;;;;;;;6.53;3.42;;;;;;;18.22;77.09;98467.29;1666145;85;21105;-69
2021/05/17 08:11:49;;;;;;;3.08;2.83;;;;;;;18.27;76.97;98477.98;1658988;86;21078;-68
2021/05/17 08:14:17;;;;;;;2.85;2.58;;;;;;;18.30;76.64;98476.76;1672828;85;21082;-68
2021/05/17 08:16:45;;;;;;;3.55;2.85;;;;;;;18.37;76.98;98470.77;1659760;86;21066;-69
2021/05/17 08:19:14;;;;;;;4.28;2.50;;;;;;;18.45;76.56;98468.58;1672747;85;21871;-68
2021/05/17 08:21:41;;;;;;;5.80;3.10;;;;;;;18.53;75.98;98449.20;1659772;86;21030;-68
2021/05/17 08:24:09;;;;;;;2.60;2.40;;;;;;;18.56;75.23;98437.70;1673008;85;21654;-69
2021/05/17 08:26:37;;;;;;;2.75;2.52;;;;;;;18.59;74.46;98445.19;1659923;86;21727;-68
2021/05/17 08:29:05;;;;;;;3.55;2.77;;;;;;;18.60;74.21;98452.23;1659818;85;21128;-69
2021/05/17 08:31:31;;;;;;;2.42;2.00;;;;;;;18.63;73.40;98453.73;1665935;85;21176;-68
2021/05/17 08:33:58;;;;;;;2.37;2.10;;;;;;;18.69;73.13;98468.75;1651208;85;21012;-68
2021/05/17 08:36:25;;;;;;;2.70;2.50;;;;;;;18.76;72.44;98451.84;1687301;84;21042;-68
2021/05/17 08:38:51;;;;;;;3.55;2.17;;;;;;;18.82;72.23;98451.88;1660198;85;21045;-70
2021/05/17 08:41:19;;;;;;;2.22;2.05;;;;;;;18.87;71.82;98451.68;1670245;85;21074;-70
2021/05/17 08:43:46;;;;;;;3.02;2.08;;;;;;;18.94;71.67;98470.22;1687116;84;21031;-70
2021/05/17 08:46:13;;;;;;;3.08;2.40;;;;;;;18.95;70.07;98488.14;1671783;84;21017;-69
2021/05/17 08:48:47;;;;;;;2.90;2.45;;;;;;;18.98;70.11;98497.03;1660598;85;20974;-68
2021/05/17 08:51:24;;;;;;;2.22;1.90;;;;;;;19.05;70.07;98493.19;1638396;86;28591;-69
2021/05/17 08:53:51;;;;;;;3.12;2.35;;;;;;;19.12;69.39;98497.55;1679345;85;21034;-73
2021/05/17 08:56:20;;;;;;;2.47;2.30;;;;;;;19.23;68.67;98498.73;1687207;84;21109;-70
2021/05/17 08:58:47;;;;;;;3.92;2.50;;;;;;;19.35;68.61;98498.75;1687031;85;22319;-70
2021/05/17 09:01:14;;;;;;;2.58;2.37;;;;;;;19.47;68.75;98501.53;1663271;85;21169;-69
2021/05/17 09:03:41;;;;;;;3.47;2.35;;;;;;;19.60;68.78;98499.64;1673355;85;21124;-69
2021/05/17 09:06:09;;;;;;;3.10;2.22;;;;;;;19.71;68.27;98508.97;1687135;84;22517;-70
2021/05/17 09:08:42;;;;;;;3.02;2.52;;;;;;;19.74;67.09;98524.67;1688486;85;21007;-71
2021/05/17 09:11:13;;;;;;;2.60;2.10;;;;;;;19.75;66.98;98539.12;1684393;85;21007;-69
2021/05/17 09:13:40;;;;;;;5.33;2.83;;;;;;;19.73;66.92;98544.11;1668461;84;21037;-69
2021/05/17 09:16:06;;;;;;;3.15;2.50;;;;;;;19.73;66.56;98540.81;1660970;85;21054;-69
2021/05/17 09:18:32;;;;;;;5.37;2.08;;;;;;;19.77;66.69;98538.20;1660984;84;21568;-72
2021/05/17 09:21:03;;;;;;;1.92;1.77;;;;;;;19.80;66.36;98539.70;1665341;85;21111;-69
2021/05/17 09:23:34;;;;;;;2.50;2.30;;;;;;;19.82;66.16;98540.14;1685425;84;21578;-72
2021/05/17 09:26:13;;;;;;;2.47;1.85;;;;;;;19.80;66.02;98538.34;1687258;85;20990;-70
2021/05/17 09:28:44;;;;;;;2.47;2.27;;;;;;;19.80;65.91;98544.36;1678391;85;20986;-69
2021/05/17 09:31:14;;;;;;;4.05;1.92;;;;;;;19.74;66.00;98547.88;1648951;85;21050;-68
2021/05/17 09:33:56;;;;;;;3.50;2.85;;;;;;;19.68;66.69;98557.95;1626554;85;21136;-68
2021/05/17 09:36:28;;;;;;;7.97;4.58;;;;;;;19.64;67.01;98563.86;1629281;86;21521;-69
2021/05/17 09:39:05;;;;;;;6.15;3.95;;;;;;;19.63;67.49;98589.54;1665580;85;21038;-69
2021/05/17 09:41:43;;;;;;;4.05;2.37;;;;;;;19.62;67.36;98600.22;1657736;86;21106;-68
2021/05/17 09:44:13;;;;;;;3.30;2.40;;;;;;;19.60;67.17;98621.03;1672919;85;20983;-68
2021/05/17 09:47:04;;;;;;;3.85;2.62;;;;;;;19.62;67.66;98629.66;1613157;87;21134;-69
2021/05/17 09:49:52;;;;;;;3.08;2.62;;;;;;;19.57;68.37;98625.77;1624434;87;21605;-69
2021/05/17 09:52:32;;;;;;;4.92;3.00;;;;;;;19.50;69.44;98632.34;1609854;87;22216;-68
2021/05/17 09:55:07;;;;;;;3.42;3.12;;;;;;;19.45;70.89;98624.37;1630039;85;21086;-66
2021/05/17 09:57:41;;;;;;;4.78;4.30;;;;;;;19.30;72.10;98618.92;1642944;86;21552;-69
2021/05/17 10:00:23;;;;;;;3.80;3.50;;;;;;;19.21;73.79;98610.02;1656211;85;21135;-77
2021/05/17 10:02:54;;;;;;;5.17;3.87;;;;;;;19.12;74.56;98615.55;1651772;86;21701;-70
2021/05/17 10:05:35;;;;;;;6.45;5.12;;;;;;;19.03;75.78;98605.27;1651984;85;21046;-69
2021/05/17 10:08:08;;;;;;;8.30;4.60;;;;;;;18.85;77.83;98565.63;1658246;85;20967;-69
2021/05/17 10:10:36;;;;;;;3.90;3.42;;;;;;;18.75;77.85;98448.92;1634149;85;22288;-74
2021/05/17 10:13:04;;;;;;;3.35;3.02;;;;;;;18.49;79.28;98416.97;1659338;86;21022;-75
2021/05/17 10:15:33;;;;;;;3.52;2.87;;;;;;;18.19;81.55;98438.00;1672690;85;21011;-76
2021/05/17 10:18:00;;;;;;;6.15;3.02;;;;;;;18.06;82.19;98434.41;1655035;86;21073;-77
2021/05/17 10:20:28;;;;;;;4.50;4.12;;;;;;;17.94;83.52;98422.64;1660039;85;21042;-73
2021/05/17 10:22:56;;;;;;;4.00;3.20;;;;;;;17.80;84.10;98390.22;1624336;87;20952;-72
2021/05/17 10:25:25;;;;;;;4.45;3.02;;;;;;;17.74;85.16;98350.20;1638118;86;22159;-74
2021/05/17 10:27:54;;;;;;;3.77;3.12;;;;;;;17.66;86.38;98312.16;1666933;85;21074;-74
2021/05/17 10:30:31;;;;;;;3.47;3.10;;;;;;;17.59;87.81;98301.03;1636471;86;21031;-78
2021/05/17 10:33:04;;;;;;;4.40;4.10;;;;;;;17.51;88.74;98280.88;1643513;86;21621;-73
2021/05/17 10:35:41;;;;;;;6.17;4.60;;;;;;;17.41;89.75;98244.56;1632763;87;21600;-77
2021/05/17 10:41:19;;;;;;;4.53;3.60;;;;;;;17.23;91.21;98269.69;1632280;86;21040;-74
2021/05/17 10:46:41;;;;;;;2.95;2.75;;;;;;;17.36;92.06;98296.42;1642060;87;21649;-76
2021/05/17 10:49:24;;;;;;;4.75;3.90;;;;;;;17.45;91.77;98314.83;1642280;87;21122;-72
2021/05/17 10:52:06;;;;;;;4.65;3.08;;;;;;;17.54;91.39;98312.06;1630937;86;24874;-74
2021/05/17 10:54:40;;;;;;;4.25;3.42;;;;;;;17.57;90.76;98317.63;1615477;88;20988;-75
2021/05/17 10:57:30;;;;;;;3.27;2.92;;;;;;;17.61;90.51;98315.87;1615639;88;21112;-75
2021/05/17 11:02:43;;;;;;;4.30;3.92;;;;;;;17.79;90.21;98315.22;1623800;87;21188;-71
2021/05/17 11:05:19;;;;;;;3.87;3.40;;;;;;;17.92;89.77;98336.48;1609042;88;21288;-70
2021/05/17 11:07:55;;;;;;;3.10;2.90;;;;;;;17.97;88.76;98354.77;1621454;87;21074;-70
2021/05/17 11:10:36;;;;;;;4.30;3.90;;;;;;;17.97;87.68;98344.45;1611073;87;21665;-69
2021/05/17 11:13:14;;;;;;;5.45;3.80;;;;;;;17.99;88.19;98338.09;1629103;86;21094;-72
2021/05/17 11:15:58;;;;;;;5.28;4.78;;;;;;;18.01;87.24;98344.81;1659092;86;21629;-69
2021/05/17 11:18:33;;;;;;;3.65;3.35;;;;;;;18.07;87.33;98337.25;1659693;86;21516;-68
2021/05/17 11:21:13;;;;;;;4.62;3.37;;;;;;;18.05;86.81;98357.18;1617706;88;21053;-75
2021/05/17 11:23:44;;;;;;;6.12;3.45;;;;;;;18.03;87.00;98358.89;1621658;87;20966;-73
2021/05/17 11:26:16;;;;;;;3.70;3.40;;;;;;;18.11;86.86;98362.11;1616031;88;21100;-72
2021/05/17 11:28:49;;;;;;;5.78;4.00;;;;;;;18.22;86.61;98372.03;1632731;87;21570;-73
2021/05/17 11:31:46;;;;;;;4.27;3.67;;;;;;;18.32;87.27;98366.17;1613930;87;21651;-75
2021/05/17 11:34:06;;;;;;;8.50;3.80;;;;;;;18.41;85.76;98381.09;1679427;85;28009;-76
2021/05/17 11:36:38;;;;;;;8.38;4.25;;;;;;;18.34;85.16;98385.70;1594351;88;21114;-78
2021/05/17 11:39:18;;;;;;;4.28;3.85;;;;;;;18.42;85.28;98384.82;1588844;88;21070;-76
2021/05/17 11:42:00;;;;;;;4.37;3.98;;;;;;;18.51;85.09;98384.77;1649553;85;21581;-77
2021/05/17 11:47:31;;;;;;;4.50;3.70;;;;;;;18.70;83.69;98379.66;1641769;86;21669;-78
2021/05/17 11:49:59;;;;;;;4.30;3.92;;;;;;;18.80;83.31;98382.53;1641932;87;21017;-75
2021/05/17 11:52:29;;;;;;;4.15;2.83;;;;;;;18.82;82.53;98387.86;1672855;85;21115;-76
2021/05/17 11:55:01;;;;;;;4.25;3.90;;;;;;;18.90;81.33;98367.90;1637680;86;21593;-78
2021/05/17 11:57:34;;;;;;;4.87;4.00;;;;;;;18.97;80.41;98377.70;1619974;87;21092;-75
2021/05/17 12:00:11;;;;;;;;;;;;;;;19.08;80.25;98377.51;1614679;87;21633;-80
2021/05/17 12:02:45;;;;;;;5.28;4.42;;;;;;;19.18;80.14;98387.74;1660951;85;20246;-88
2021/05/17 12:05:14;;;;;;;3.60;3.00;;;;;;;19.24;80.33;98404.09;1636184;86;20973;-83
2021/05/17 12:07:45;;;;;;;7.75;4.72;;;;;;;19.15;75.19;98403.62;1614310;88;21037;-70
2021/05/17 12:10:16;;;;;;;8.53;3.70;;;;;;;19.11;75.59;98406.00;1641428;87;21802;-74
2021/05/17 12:12:43;;;;;;;9.28;3.95;;;;;;;19.09;76.26;98413.70;1661135;84;21048;-74